Time;durP1;ratioP1;P1;durP2;ratioP2;P2;SDS_P1;SDS_P2;PMS_P1;PMS_P2;Temp;Humidity;BMP_temperature;BMP_pressure;BME280_temperature;BME280_humidity;BME280_pressure;Samples;Min_cycle;Max_cycle;Signal;HPM_P1;HPM_P2
2023/11/18 00:02:08;;;;;;;88.03;30.67;;;;;;;;;;5019398;28;20186;-68
2023/11/18 00:04:34;;;;;;;97.23;32.13;;;;;;;;;;5019852;28;20241;-67
2023/11/18 00:07:00;;;;;;;92.73;31.13;;;;;;;;;;5012907;28;20255;-67
2023/11/18 00:09:25;;;;;;;227.93;37.70;;;;;;;;;;5009947;28;20201;-68
2023/11/18 00:11:50;;;;;;;112.13;34.60;;;;;;;;;;5027725;28;20225;-68
2023/11/18 00:14:17;;;;;;;144.20;34.17;;;;;;;;;;5026676;28;20206;-68
2023/11/18 00:16:43;;;;;;;265.40;41.03;;;;;;;;;;5035576;28;20286;-68
2023/11/18 00:19:09;;;;;;;125.07;33.23;;;;;;;;;;5025767;28;20701;-68
2023/11/18 00:21:35;;;;;;;120.40;33.10;;;;;;;;;;5019385;28;20640;-68
2023/11/18 00:24:01;;;;;;;188.17;36.13;;;;;;;;;;5015711;28;20216;-68
2023/11/18 00:26:26;;;;;;;134.53;33.83;;;;;;;;;;5012734;28;20650;-67
2023/11/18 00:28:52;;;;;;;165.93;35.17;;;;;;;;;;5044781;28;20182;-68
2023/11/18 00:31:17;;;;;;;173.23;34.90;;;;;;;;;;5016545;28;20218;-68
2023/11/18 00:33:43;;;;;;;165.67;34.83;;;;;;;;;;5014933;28;20236;-67
2023/11/18 00:36:08;;;;;;;181.57;33.60;;;;;;;;;;5014252;28;20195;-68
2023/11/18 00:38:34;;;;;;;212.63;36.63;;;;;;;;;;5024512;28;20777;-68
2023/11/18 00:41:00;;;;;;;177.17;33.17;;;;;;;;;;5017765;28;20264;-68
2023/11/18 00:43:25;;;;;;;89.47;30.27;;;;;;;;;;5026534;28;20192;-68
2023/11/18 00:45:51;;;;;;;141.60;33.30;;;;;;;;;;5024478;28;20243;-68
2023/11/18 00:48:16;;;;;;;247.13;37.67;;;;;;;;;;5028913;28;20501;-68
2023/11/18 00:50:42;;;;;;;224.73;36.33;;;;;;;;;;5025281;28;20197;-68
2023/11/18 00:53:07;;;;;;;187.50;37.07;;;;;;;;;;5020095;28;20217;-68
2023/11/18 00:55:33;;;;;;;193.20;36.20;;;;;;;;;;5011913;28;20187;-68
2023/11/18 00:57:58;;;;;;;175.27;33.00;;;;;;;;;;5021930;28;20281;-68
2023/11/18 01:00:27;;;;;;;129.43;30.27;;;;;;;;;;5037949;28;20198;-68
2023/11/18 01:02:54;;;;;;;423.07;48.00;;;;;;;;;;5032048;28;20617;-68
2023/11/18 01:05:20;;;;;;;188.20;34.63;;;;;;;;;;5019148;28;20186;-68
2023/11/18 01:07:45;;;;;;;224.43;36.27;;;;;;;;;;5025509;28;20257;-68
2023/11/18 01:10:11;;;;;;;167.67;33.90;;;;;;;;;;5024538;28;20230;-68
2023/11/18 01:12:37;;;;;;;343.47;41.70;;;;;;;;;;5026358;28;20210;-68
2023/11/18 01:15:03;;;;;;;378.03;43.00;;;;;;;;;;5037453;28;20196;-68
2023/11/18 01:17:31;;;;;;;137.90;31.40;;;;;;;;;;5020743;28;20204;-68
2023/11/18 01:19:56;;;;;;;126.90;30.57;;;;;;;;;;5016384;28;20224;-68
2023/11/18 01:22:22;;;;;;;95.43;28.67;;;;;;;;;;5019464;28;20279;-68
2023/11/18 01:24:47;;;;;;;174.07;34.40;;;;;;;;;;5043336;28;20185;-68
2023/11/18 01:27:13;;;;;;;185.13;34.03;;;;;;;;;;5038307;28;20196;-68
2023/11/18 01:29:41;;;;;;;241.87;35.27;;;;;;;;;;5032439;28;20191;-68
2023/11/18 01:32:11;;;;;;;99.57;28.57;;;;;;;;;;5029964;28;20194;-68
2023/11/18 01:34:39;;;;;;;141.63;32.03;;;;;;;;;;5010879;28;20183;-68
2023/11/18 01:37:07;;;;;;;103.40;29.53;;;;;;;;;;5025449;28;20193;-68
2023/11/18 01:39:35;;;;;;;206.93;35.50;;;;;;;;;;5010810;28;20280;-68
2023/11/18 01:42:02;;;;;;;94.80;28.70;;;;;;;;;;5025559;28;20672;-69
2023/11/18 01:44:28;;;;;;;135.70;33.47;;;;;;;;;;5019346;28;20179;-68
2023/11/18 01:46:57;;;;;;;116.10;30.60;;;;;;;;;;5025494;28;20289;-68
2023/11/18 01:49:24;;;;;;;82.77;29.50;;;;;;;;;;5026719;28;20189;-69
2023/11/18 01:51:56;;;;;;;85.17;28.47;;;;;;;;;;5012057;28;20218;-68
2023/11/18 01:54:23;;;;;;;88.63;29.77;;;;;;;;;;5014248;28;20186;-68
2023/11/18 01:56:49;;;;;;;85.13;27.13;;;;;;;;;;5033481;28;20193;-69
2023/11/18 01:59:18;;;;;;;117.97;29.33;;;;;;;;;;5035609;28;20265;-68
2023/11/18 02:01:49;;;;;;;73.10;26.20;;;;;;;;;;5026081;28;20241;-68
2023/11/18 02:04:15;;;;;;;128.80;28.87;;;;;;;;;;5049304;28;20185;-68
2023/11/18 02:06:41;;;;;;;76.47;26.50;;;;;;;;;;5040231;28;20248;-69
2023/11/18 02:09:07;;;;;;;91.23;26.93;;;;;;;;;;5028356;28;20197;-69
2023/11/18 02:11:42;;;;;;;74.90;27.23;;;;;;;;;;5022163;28;20226;-69
2023/11/18 02:14:16;;;;;;;89.80;28.57;;;;;;;;;;5037181;28;20193;-68
2023/11/18 02:16:43;;;;;;;84.47;26.80;;;;;;;;;;5025603;28;20181;-68
2023/11/18 02:19:19;;;;;;;74.23;26.07;;;;;;;;;;5045406;28;20228;-68
2023/11/18 02:21:46;;;;;;;78.70;26.67;;;;;;;;;;5008025;28;20197;-69
2023/11/18 02:24:27;;;;;;;82.73;27.07;;;;;;;;;;5030014;28;20273;-68
2023/11/18 02:26:55;;;;;;;90.07;26.90;;;;;;;;;;5026081;28;20373;-68
2023/11/18 02:29:20;;;;;;;81.00;28.13;;;;;;;;;;5034911;28;20709;-69
2023/11/18 02:31:49;;;;;;;77.80;26.60;;;;;;;;;;5028311;28;20299;-68
2023/11/18 02:34:20;;;;;;;91.03;28.00;;;;;;;;;;5023793;28;20195;-68
2023/11/18 02:36:48;;;;;;;80.57;27.07;;;;;;;;;;5041719;28;20213;-68
2023/11/18 02:39:31;;;;;;;95.97;28.53;;;;;;;;;;5040283;28;20193;-69
2023/11/18 02:41:57;;;;;;;77.07;27.73;;;;;;;;;;5026512;28;20215;-68
2023/11/18 02:44:25;;;;;;;91.20;28.50;;;;;;;;;;5029047;28;20190;-69
2023/11/18 02:46:51;;;;;;;87.27;28.80;;;;;;;;;;5020417;28;20660;-68
2023/11/18 02:49:17;;;;;;;108.10;30.53;;;;;;;;;;5009565;28;20182;-69
2023/11/18 02:51:47;;;;;;;88.63;29.13;;;;;;;;;;5021468;28;20222;-69
2023/11/18 02:54:13;;;;;;;76.23;26.90;;;;;;;;;;5008911;28;20321;-68
2023/11/18 02:56:38;;;;;;;82.60;26.93;;;;;;;;;;5012269;28;20264;-68
2023/11/18 02:59:07;;;;;;;75.23;25.63;;;;;;;;;;5012847;28;20575;-68
2023/11/18 03:01:33;;;;;;;85.93;26.07;;;;;;;;;;5022037;28;20387;-68
2023/11/18 03:03:59;;;;;;;84.33;27.07;;;;;;;;;;5019321;28;20806;-68
2023/11/18 03:06:25;;;;;;;85.33;26.87;;;;;;;;;;5048322;28;20350;-68
2023/11/18 03:08:51;;;;;;;71.13;25.83;;;;;;;;;;5032275;28;20317;-68
2023/11/18 03:11:17;;;;;;;76.60;27.40;;;;;;;;;;5028338;28;20346;-68
2023/11/18 03:13:42;;;;;;;76.23;26.13;;;;;;;;;;5032544;28;20609;-68
2023/11/18 03:16:12;;;;;;;86.33;28.17;;;;;;;;;;5029647;28;20184;-68
2023/11/18 03:18:42;;;;;;;99.30;29.53;;;;;;;;;;5026643;28;20216;-68
2023/11/18 03:21:14;;;;;;;87.10;28.90;;;;;;;;;;5015937;28;20271;-69
2023/11/18 03:23:40;;;;;;;108.80;30.17;;;;;;;;;;5019536;28;20189;-68
2023/11/18 03:26:06;;;;;;;89.27;27.30;;;;;;;;;;5031111;28;20190;-68
2023/11/18 03:28:32;;;;;;;89.43;27.97;;;;;;;;;;5035096;28;20187;-69
2023/11/18 03:30:57;;;;;;;101.53;30.00;;;;;;;;;;5028755;28;20252;-68
2023/11/18 03:33:23;;;;;;;106.43;28.50;;;;;;;;;;5024754;28;20247;-68
2023/11/18 03:35:48;;;;;;;110.83;30.07;;;;;;;;;;5042132;28;20283;-69
2023/11/18 03:38:14;;;;;;;85.20;27.97;;;;;;;;;;5041909;28;20259;-68
2023/11/18 03:40:41;;;;;;;98.63;30.13;;;;;;;;;;5017187;28;20244;-68
2023/11/18 03:43:07;;;;;;;105.97;30.67;;;;;;;;;;5032961;28;20185;-68
2023/11/18 03:45:32;;;;;;;114.10;32.27;;;;;;;;;;5041043;28;20189;-68
2023/11/18 03:48:00;;;;;;;120.80;32.60;;;;;;;;;;5024172;28;20186;-68
2023/11/18 03:50:26;;;;;;;123.07;32.10;;;;;;;;;;5026542;28;20193;-68
2023/11/18 03:52:51;;;;;;;117.53;33.33;;;;;;;;;;5022314;28;20210;-68
2023/11/18 03:55:18;;;;;;;103.20;31.80;;;;;;;;;;5020400;28;20178;-68
2023/11/18 03:57:45;;;;;;;109.53;29.97;;;;;;;;;;5012956;28;20183;-68
2023/11/18 04:00:11;;;;;;;102.10;29.73;;;;;;;;;;5023263;28;20178;-68
2023/11/18 04:02:37;;;;;;;126.13;32.23;;;;;;;;;;5025235;28;20179;-68
2023/11/18 04:05:03;;;;;;;115.47;33.67;;;;;;;;;;5032476;28;20194;-68
2023/11/18 04:07:29;;;;;;;108.77;32.53;;;;;;;;;;5036884;28;20177;-68
2023/11/18 04:09:54;;;;;;;119.43;36.07;;;;;;;;;;5037770;28;20204;-68
2023/11/18 04:12:20;;;;;;;122.03;35.00;;;;;;;;;;5031130;28;20936;-68
2023/11/18 04:14:45;;;;;;;139.07;35.23;;;;;;;;;;5026248;28;20721;-68
2023/11/18 04:17:10;;;;;;;115.77;33.47;;;;;;;;;;5025057;28;20222;-68
2023/11/18 04:19:36;;;;;;;127.63;36.20;;;;;;;;;;5032085;28;20207;-68
2023/11/18 04:22:02;;;;;;;127.20;36.33;;;;;;;;;;5037329;28;20251;-69
2023/11/18 04:24:27;;;;;;;142.30;36.97;;;;;;;;;;5031178;28;20215;-68
2023/11/18 04:26:55;;;;;;;122.90;35.63;;;;;;;;;;5042389;28;20216;-68
2023/11/18 04:29:21;;;;;;;136.03;35.20;;;;;;;;;;5030428;28;20190;-68
2023/11/18 04:31:46;;;;;;;132.93;34.73;;;;;;;;;;5027929;28;20297;-69
2023/11/18 04:34:12;;;;;;;136.30;35.83;;;;;;;;;;5044307;28;20631;-68
2023/11/18 04:36:41;;;;;;;127.83;33.83;;;;;;;;;;5034968;28;20489;-68
2023/11/18 04:39:06;;;;;;;139.10;34.63;;;;;;;;;;5031754;28;20185;-68
2023/11/18 04:41:32;;;;;;;128.67;35.23;;;;;;;;;;5034553;28;20278;-68
2023/11/18 04:43:57;;;;;;;110.60;33.90;;;;;;;;;;5018713;28;20194;-68
2023/11/18 04:46:22;;;;;;;123.87;36.50;;;;;;;;;;5027696;28;20697;-68
2023/11/18 04:48:48;;;;;;;128.00;35.73;;;;;;;;;;5022161;28;20198;-68
2023/11/18 04:51:13;;;;;;;139.97;38.53;;;;;;;;;;5019638;28;20604;-68
2023/11/18 04:53:39;;;;;;;118.63;34.87;;;;;;;;;;5026557;28;20232;-68
2023/11/18 04:56:06;;;;;;;135.50;35.83;;;;;;;;;;5029874;28;20190;-68
2023/11/18 04:58:31;;;;;;;142.17;38.07;;;;;;;;;;5017582;28;20234;-68
2023/11/18 05:00:56;;;;;;;135.73;37.00;;;;;;;;;;5016365;28;20238;-68
2023/11/18 05:03:24;;;;;;;135.57;36.50;;;;;;;;;;5036259;28;20216;-68
2023/11/18 05:05:49;;;;;;;145.60;38.20;;;;;;;;;;5044145;28;20376;-68
2023/11/18 05:08:21;;;;;;;128.17;37.00;;;;;;;;;;5032765;28;20311;-68
2023/11/18 05:10:48;;;;;;;135.50;35.23;;;;;;;;;;5024442;28;20707;-68
2023/11/18 05:13:16;;;;;;;131.57;37.40;;;;;;;;;;5029518;28;20538;-68
2023/11/18 05:15:48;;;;;;;161.90;39.50;;;;;;;;;;5021767;28;20605;-68
2023/11/18 05:18:14;;;;;;;142.30;37.03;;;;;;;;;;5025975;28;20321;-68
2023/11/18 05:20:43;;;;;;;151.47;39.13;;;;;;;;;;5035066;28;20191;-68
2023/11/18 05:23:12;;;;;;;160.37;42.50;;;;;;;;;;5030301;28;20183;-68
2023/11/18 05:25:39;;;;;;;147.70;38.70;;;;;;;;;;5029920;28;20295;-68
2023/11/18 05:28:08;;;;;;;153.33;39.97;;;;;;;;;;5036489;28;20237;-68
2023/11/18 05:30:34;;;;;;;162.13;40.33;;;;;;;;;;5034501;28;20193;-68
2023/11/18 05:33:05;;;;;;;137.53;36.93;;;;;;;;;;5025181;28;20245;-68
2023/11/18 05:35:31;;;;;;;151.87;38.63;;;;;;;;;;5039260;28;20183;-68
2023/11/18 05:37:57;;;;;;;149.40;40.20;;;;;;;;;;5043261;28;20610;-68
2023/11/18 05:40:22;;;;;;;130.50;39.33;;;;;;;;;;5032247;28;20230;-68
2023/11/18 05:42:51;;;;;;;131.67;39.43;;;;;;;;;;5027705;28;20543;-68
2023/11/18 05:45:27;;;;;;;121.50;35.73;;;;;;;;;;5030706;28;20209;-68
2023/11/18 05:47:56;;;;;;;140.87;37.53;;;;;;;;;;5014845;28;20190;-68
2023/11/18 05:50:25;;;;;;;146.63;39.80;;;;;;;;;;5010846;28;20562;-68
2023/11/18 05:52:52;;;;;;;151.00;41.43;;;;;;;;;;5013294;28;20289;-68
2023/11/18 05:55:17;;;;;;;161.17;41.67;;;;;;;;;;5010249;28;20273;-68
2023/11/18 05:57:44;;;;;;;166.73;43.00;;;;;;;;;;5014426;28;20273;-68
2023/11/18 06:00:15;;;;;;;176.63;41.63;;;;;;;;;;5018920;28;20266;-68
2023/11/18 06:02:43;;;;;;;166.83;41.50;;;;;;;;;;5019639;28;20193;-68
2023/11/18 06:05:12;;;;;;;165.60;43.50;;;;;;;;;;5025046;28;20186;-68
2023/11/18 06:07:39;;;;;;;182.37;46.93;;;;;;;;;;5029852;28;20189;-68
2023/11/18 06:10:06;;;;;;;138.67;38.90;;;;;;;;;;5020282;28;20230;-68
2023/11/18 06:12:32;;;;;;;183.87;47.40;;;;;;;;;;5020698;28;20210;-68
2023/11/18 06:14:58;;;;;;;180.77;46.13;;;;;;;;;;5027540;28;20560;-68
2023/11/18 06:17:23;;;;;;;189.47;47.27;;;;;;;;;;5028060;28;20521;-68
2023/11/18 06:19:49;;;;;;;209.60;48.53;;;;;;;;;;5033959;28;20191;-66
2023/11/18 06:22:15;;;;;;;190.53;47.33;;;;;;;;;;5020072;28;20199;-67
2023/11/18 06:24:41;;;;;;;185.93;48.80;;;;;;;;;;5024103;28;20182;-67
2023/11/18 06:27:07;;;;;;;186.10;46.13;;;;;;;;;;5033826;28;20300;-68
2023/11/18 06:29:32;;;;;;;206.80;47.93;;;;;;;;;;5012928;28;20191;-67
2023/11/18 06:31:58;;;;;;;179.60;44.80;;;;;;;;;;5020093;28;20206;-67
2023/11/18 06:34:23;;;;;;;185.47;48.57;;;;;;;;;;5018930;28;20262;-67
2023/11/18 06:36:48;;;;;;;194.43;48.47;;;;;;;;;;5033349;28;20333;-67
2023/11/18 06:39:14;;;;;;;216.33;49.60;;;;;;;;;;5025753;28;20292;-68
2023/11/18 06:41:48;;;;;;;200.07;48.83;;;;;;;;;;5033351;28;20201;-68
2023/11/18 06:44:17;;;;;;;191.03;48.17;;;;;;;;;;5016761;28;20329;-67
2023/11/18 06:46:44;;;;;;;187.40;46.47;;;;;;;;;;5029627;28;20178;-68
2023/11/18 06:49:15;;;;;;;204.70;49.60;;;;;;;;;;5012684;28;20199;-68
2023/11/18 06:51:41;;;;;;;195.67;51.90;;;;;;;;;;5016851;28;20228;-68
2023/11/18 06:54:10;;;;;;;219.67;53.47;;;;;;;;;;5014841;28;20269;-68
2023/11/18 06:56:37;;;;;;;203.80;51.73;;;;;;;;;;5015527;28;20191;-68
2023/11/18 06:59:10;;;;;;;210.77;52.00;;;;;;;;;;5019569;28;20186;-68
2023/11/18 07:01:36;;;;;;;210.60;51.83;;;;;;;;;;5025345;28;20699;-67
2023/11/18 07:04:01;;;;;;;185.27;49.23;;;;;;;;;;5039700;28;20188;-68
2023/11/18 07:06:26;;;;;;;197.67;50.77;;;;;;;;;;5031610;28;20186;-67
2023/11/18 07:08:53;;;;;;;170.63;48.73;;;;;;;;;;5013549;28;20203;-68
2023/11/18 07:11:20;;;;;;;180.70;51.90;;;;;;;;;;5027760;28;20225;-68
2023/11/18 07:13:47;;;;;;;161.23;50.13;;;;;;;;;;5040470;28;20662;-68
2023/11/18 07:16:14;;;;;;;187.57;51.67;;;;;;;;;;5034938;28;20217;-68
2023/11/18 07:18:40;;;;;;;164.97;48.37;;;;;;;;;;5026149;28;20311;-68
2023/11/18 07:21:05;;;;;;;177.33;51.50;;;;;;;;;;5032983;28;20213;-68
2023/11/18 07:23:31;;;;;;;175.47;49.77;;;;;;;;;;5040182;28;20268;-68
2023/11/18 07:25:57;;;;;;;178.73;48.07;;;;;;;;;;5034554;28;20191;-68
2023/11/18 07:28:23;;;;;;;169.17;47.40;;;;;;;;;;5026957;28;20182;-68
2023/11/18 07:30:48;;;;;;;167.53;45.53;;;;;;;;;;5035579;28;20196;-68
2023/11/18 07:33:15;;;;;;;157.50;45.60;;;;;;;;;;5028929;28;20228;-68
2023/11/18 07:35:41;;;;;;;164.43;46.87;;;;;;;;;;5033837;28;20613;-68
2023/11/18 07:38:10;;;;;;;159.60;46.80;;;;;;;;;;5031623;28;20186;-68
2023/11/18 07:40:37;;;;;;;164.53;47.50;;;;;;;;;;5029294;28;20269;-68
2023/11/18 07:43:03;;;;;;;144.67;45.97;;;;;;;;;;5029609;28;20175;-68
2023/11/18 07:45:37;;;;;;;140.47;44.73;;;;;;;;;;5022745;28;20649;-68
2023/11/18 07:48:06;;;;;;;132.93;44.97;;;;;;;;;;5020514;28;20628;-68
2023/11/18 07:50:37;;;;;;;158.00;46.70;;;;;;;;;;5023926;28;20193;-68
2023/11/18 07:53:03;;;;;;;137.70;46.33;;;;;;;;;;5026443;28;20515;-68
2023/11/18 07:55:34;;;;;;;151.20;46.53;;;;;;;;;;5017058;28;20574;-68
2023/11/18 07:58:03;;;;;;;136.83;43.93;;;;;;;;;;5025761;28;20240;-68
2023/11/18 08:00:30;;;;;;;147.07;44.90;;;;;;;;;;5024252;28;20194;-68
2023/11/18 08:02:59;;;;;;;153.17;44.87;;;;;;;;;;5019053;28;20217;-68
2023/11/18 08:05:25;;;;;;;141.27;44.20;;;;;;;;;;5029829;28;20269;-68
2023/11/18 08:07:50;;;;;;;139.67;44.20;;;;;;;;;;5016848;28;20767;-68
2023/11/18 08:10:18;;;;;;;131.90;43.00;;;;;;;;;;5030138;28;20222;-69
2023/11/18 08:12:46;;;;;;;141.03;43.17;;;;;;;;;;5028010;28;20527;-69
2023/11/18 08:15:13;;;;;;;131.90;41.87;;;;;;;;;;5018665;28;20467;-69
2023/11/18 08:17:39;;;;;;;131.20;45.20;;;;;;;;;;5010577;28;20814;-68
2023/11/18 08:20:13;;;;;;;121.10;42.37;;;;;;;;;;5014308;28;20365;-68
2023/11/18 08:22:41;;;;;;;119.57;42.00;;;;;;;;;;5014929;28;20178;-68
2023/11/18 08:25:08;;;;;;;118.67;41.33;;;;;;;;;;5020876;28;20179;-68
2023/11/18 08:27:35;;;;;;;130.83;40.53;;;;;;;;;;5011212;28;20193;-68
2023/11/18 08:30:01;;;;;;;106.13;37.50;;;;;;;;;;5021484;28;20190;-68
2023/11/18 08:32:26;;;;;;;113.07;39.30;;;;;;;;;;5015071;28;20796;-68
2023/11/18 08:34:51;;;;;;;102.43;38.27;;;;;;;;;;5037188;28;20668;-68
2023/11/18 08:37:17;;;;;;;102.30;37.90;;;;;;;;;;5021544;28;20345;-67
2023/11/18 08:39:42;;;;;;;107.73;37.23;;;;;;;;;;5019920;28;20194;-68
2023/11/18 08:42:08;;;;;;;110.53;36.63;;;;;;;;;;5013392;28;20195;-68
2023/11/18 08:44:33;;;;;;;97.00;35.43;;;;;;;;;;5041487;28;20190;-68
2023/11/18 08:46:59;;;;;;;102.13;37.13;;;;;;;;;;5017943;28;20194;-68
2023/11/18 08:49:25;;;;;;;100.27;36.20;;;;;;;;;;5023675;28;20190;-67
2023/11/18 08:51:55;;;;;;;90.67;34.73;;;;;;;;;;5022789;28;20238;-67
2023/11/18 08:54:25;;;;;;;88.43;34.93;;;;;;;;;;5023498;28;20186;-68
2023/11/18 08:56:51;;;;;;;93.97;35.60;;;;;;;;;;5029929;28;20598;-68
2023/11/18 08:59:27;;;;;;;98.93;35.33;;;;;;;;;;5020481;28;20673;-68
2023/11/18 09:01:56;;;;;;;80.77;32.77;;;;;;;;;;5024576;28;20326;-68
2023/11/18 09:04:25;;;;;;;85.73;32.90;;;;;;;;;;5034103;28;20185;-68
2023/11/18 09:06:54;;;;;;;80.90;32.27;;;;;;;;;;5019469;28;20516;-68
2023/11/18 09:09:29;;;;;;;80.50;32.57;;;;;;;;;;5020687;28;20522;-68
2023/11/18 09:11:58;;;;;;;86.07;32.60;;;;;;;;;;5018342;28;20238;-68
2023/11/18 09:14:25;;;;;;;78.90;31.93;;;;;;;;;;5015179;28;20314;-68
2023/11/18 09:16:51;;;;;;;79.13;31.60;;;;;;;;;;5019786;28;20302;-67
2023/11/18 09:19:17;;;;;;;77.77;30.87;;;;;;;;;;5024952;28;20214;-67
2023/11/18 09:21:44;;;;;;;78.93;32.60;;;;;;;;;;5019140;28;20202;-68
2023/11/18 09:24:12;;;;;;;75.03;31.07;;;;;;;;;;5022524;28;20208;-68
2023/11/18 09:26:38;;;;;;;77.53;29.70;;;;;;;;;;5027216;28;20202;-66
2023/11/18 09:29:03;;;;;;;73.73;31.10;;;;;;;;;;5020445;28;20548;-66
2023/11/18 09:31:31;;;;;;;69.60;30.07;;;;;;;;;;5022284;28;20186;-67
2023/11/18 09:33:57;;;;;;;59.30;27.43;;;;;;;;;;5017345;28;20190;-67
2023/11/18 09:36:23;;;;;;;70.73;28.97;;;;;;;;;;5014553;28;20186;-68
2023/11/18 09:38:49;;;;;;;83.83;30.33;;;;;;;;;;5021883;28;20700;-68
2023/11/18 09:41:15;;;;;;;64.60;29.43;;;;;;;;;;5021931;28;20201;-67
2023/11/18 09:43:45;;;;;;;59.20;27.83;;;;;;;;;;5026635;28;20177;-67
2023/11/18 09:46:32;;;;;;;66.53;29.50;;;;;;;;;;5010122;28;20197;-67
2023/11/18 09:49:16;;;;;;;67.10;28.23;;;;;;;;;;5027288;28;20625;-67
2023/11/18 09:51:47;;;;;;;63.50;27.07;;;;;;;;;;5025469;28;20628;-67
2023/11/18 09:54:24;;;;;;;62.07;27.63;;;;;;;;;;5018574;28;20716;-67
2023/11/18 09:57:08;;;;;;;57.53;27.43;;;;;;;;;;5017422;28;20195;-67
2023/11/18 09:59:46;;;;;;;63.07;26.93;;;;;;;;;;5028464;28;20189;-67
2023/11/18 10:02:12;;;;;;;60.43;27.10;;;;;;;;;;5015229;28;20202;-67
2023/11/18 10:04:39;;;;;;;56.50;25.73;;;;;;;;;;5021857;28;20194;-68
2023/11/18 10:07:07;;;;;;;57.93;26.67;;;;;;;;;;5041574;28;20189;-67
2023/11/18 10:09:39;;;;;;;57.33;25.83;;;;;;;;;;5030298;28;20518;-67
2023/11/18 10:12:07;;;;;;;56.83;26.17;;;;;;;;;;5031925;28;20220;-67
2023/11/18 10:14:36;;;;;;;61.67;26.17;;;;;;;;;;5026377;28;20522;-67
2023/11/18 10:17:08;;;;;;;55.30;25.97;;;;;;;;;;5021529;28;20182;-67
2023/11/18 10:19:56;;;;;;;51.13;26.07;;;;;;;;;;5009135;28;20203;-67
2023/11/18 10:22:26;;;;;;;57.23;26.13;;;;;;;;;;5020523;28;20726;-67
2023/11/18 10:24:54;;;;;;;51.97;25.43;;;;;;;;;;5009610;28;20237;-67
2023/11/18 10:27:21;;;;;;;58.00;25.35;;;;;;;;;;5014055;28;20593;-67
2023/11/18 10:29:48;;;;;;;54.58;25.10;;;;;;;;;;5018085;28;20179;-67
2023/11/18 10:32:20;;;;;;;54.70;25.80;;;;;;;;;;5015198;28;20306;-67
2023/11/18 10:34:48;;;;;;;51.88;25.60;;;;;;;;;;5030623;28;20645;-68
2023/11/18 10:37:13;;;;;;;51.03;25.13;;;;;;;;;;5014373;28;20654;-68
2023/11/18 10:39:38;;;;;;;52.53;25.70;;;;;;;;;;5023731;28;20267;-68
2023/11/18 10:42:05;;;;;;;47.07;24.13;;;;;;;;;;5021701;28;20194;-67
2023/11/18 10:44:31;;;;;;;55.70;25.70;;;;;;;;;;5025026;28;20552;-67
2023/11/18 10:46:58;;;;;;;50.83;24.33;;;;;;;;;;5032941;28;20197;-67
2023/11/18 10:49:27;;;;;;;49.03;22.97;;;;;;;;;;5029240;28;20182;-67
2023/11/18 10:51:54;;;;;;;48.03;24.30;;;;;;;;;;5027606;28;20210;-67
2023/11/18 10:54:26;;;;;;;54.15;23.90;;;;;;;;;;5013802;28;20193;-68
2023/11/18 10:56:56;;;;;;;53.03;23.58;;;;;;;;;;5022631;28;20191;-68
2023/11/18 10:59:22;;;;;;;44.37;22.73;;;;;;;;;;5034367;28;20179;-67
2023/11/18 11:01:51;;;;;;;45.97;23.58;;;;;;;;;;5018701;28;20186;-67
2023/11/18 11:04:20;;;;;;;46.77;23.60;;;;;;;;;;5030935;28;20182;-67
2023/11/18 11:06:52;;;;;;;43.80;22.07;;;;;;;;;;5033448;28;20251;-67
2023/11/18 11:09:24;;;;;;;38.00;21.00;;;;;;;;;;5028275;28;20190;-67
2023/11/18 11:12:03;;;;;;;47.60;21.27;;;;;;;;;;5031768;28;20290;-67
2023/11/18 11:14:41;;;;;;;45.70;22.30;;;;;;;;;;5034408;28;20212;-67
2023/11/18 11:17:29;;;;;;;40.60;21.45;;;;;;;;;;5019375;28;20281;-67
2023/11/18 11:20:42;;;;;;;41.77;20.50;;;;;;;;;;5017745;28;20617;-67
2023/11/18 11:23:19;;;;;;;36.75;20.27;;;;;;;;;;5019013;28;20203;-68
2023/11/18 11:26:13;;;;;;;41.70;20.70;;;;;;;;;;5045519;28;20188;-67
2023/11/18 11:29:07;;;;;;;45.40;21.30;;;;;;;;;;5028741;28;20188;-67
2023/11/18 11:31:41;;;;;;;38.33;18.88;;;;;;;;;;5025620;28;20608;-67
2023/11/18 11:34:25;;;;;;;40.30;19.33;;;;;;;;;;5037019;28;20268;-67
2023/11/18 11:36:54;;;;;;;39.45;18.63;;;;;;;;;;5039992;28;20194;-67
2023/11/18 11:39:25;;;;;;;33.88;18.90;;;;;;;;;;5041050;28;20266;-67
2023/11/18 11:41:56;;;;;;;43.78;20.30;;;;;;;;;;5027057;28;20245;-68
2023/11/18 11:44:29;;;;;;;39.40;19.63;;;;;;;;;;5021007;28;20195;-67
2023/11/18 11:46:56;;;;;;;36.57;19.17;;;;;;;;;;5018633;28;20194;-67
2023/11/18 11:49:27;;;;;;;36.60;18.87;;;;;;;;;;5009216;28;20185;-67
2023/11/18 11:52:20;;;;;;;39.42;18.00;;;;;;;;;;5010043;28;20221;-68
2023/11/18 11:55:06;;;;;;;36.87;18.43;;;;;;;;;;5009052;28;20266;-67
2023/11/18 11:57:35;;;;;;;37.60;18.40;;;;;;;;;;5008970;28;20297;-67
2023/11/18 12:00:14;;;;;;;36.20;17.33;;;;;;;;;;5013305;28;20642;-67
2023/11/18 12:02:47;;;;;;;33.53;18.07;;;;;;;;;;5009086;28;20193;-67
2023/11/18 12:05:18;;;;;;;32.70;17.00;;;;;;;;;;5017267;28;20232;-67
2023/11/18 12:07:46;;;;;;;35.75;18.30;;;;;;;;;;5016978;28;20556;-67
2023/11/18 12:10:20;;;;;;;37.80;17.92;;;;;;;;;;5019273;28;20592;-67
2023/11/18 12:12:45;;;;;;;34.88;19.10;;;;;;;;;;5029787;28;20224;-67
2023/11/18 12:15:17;;;;;;;33.17;17.67;;;;;;;;;;5027815;28;20194;-67
2023/11/18 12:17:55;;;;;;;38.80;17.10;;;;;;;;;;5037424;28;20205;-67
2023/11/18 12:20:48;;;;;;;36.75;17.98;;;;;;;;;;5033349;28;20273;-68
2023/11/18 12:23:14;;;;;;;33.72;18.15;;;;;;;;;;5030777;28;20205;-69
2023/11/18 12:25:42;;;;;;;35.37;17.60;;;;;;;;;;5020176;28;20669;-69
2023/11/18 12:28:09;;;;;;;32.70;17.30;;;;;;;;;;5020739;28;20208;-70
2023/11/18 12:30:36;;;;;;;34.15;17.00;;;;;;;;;;5018462;28;20296;-70
2023/11/18 12:33:18;;;;;;;34.07;17.43;;;;;;;;;;5022153;28;20522;-70
2023/11/18 12:35:52;;;;;;;33.20;17.03;;;;;;;;;;5022653;28;20320;-70
2023/11/18 12:38:36;;;;;;;37.10;17.67;;;;;;;;;;5024731;28;20273;-71
2023/11/18 12:41:05;;;;;;;41.63;17.80;;;;;;;;;;5041933;28;20197;-71
2023/11/18 12:43:49;;;;;;;31.17;16.40;;;;;;;;;;5021859;28;20608;-71
2023/11/18 12:46:37;;;;;;;32.58;16.20;;;;;;;;;;5006294;28;20725;-72
2023/11/18 12:49:02;;;;;;;34.17;17.60;;;;;;;;;;5024061;28;20293;-72
2023/11/18 12:51:31;;;;;;;33.53;16.67;;;;;;;;;;5021908;28;20265;-73
2023/11/18 12:53:56;;;;;;;32.00;16.00;;;;;;;;;;5018729;28;20348;-74
2023/11/18 12:56:25;;;;;;;29.67;17.60;;;;;;;;;;5027411;28;20226;-72
2023/11/18 12:58:50;;;;;;;32.08;16.30;;;;;;;;;;5026228;28;20194;-74
2023/11/18 13:01:16;;;;;;;31.55;15.98;;;;;;;;;;5022377;28;20206;-73
2023/11/18 13:03:42;;;;;;;32.37;16.07;;;;;;;;;;5025251;28;20186;-73
2023/11/18 13:06:14;;;;;;;31.03;16.23;;;;;;;;;;5024751;28;20222;-72
2023/11/18 13:08:42;;;;;;;29.83;15.98;;;;;;;;;;5018632;28;20245;-73
2023/11/18 13:11:15;;;;;;;33.15;14.82;;;;;;;;;;5032828;28;20240;-72
2023/11/18 13:13:41;;;;;;;34.08;15.25;;;;;;;;;;5019404;28;20229;-72
2023/11/18 13:16:08;;;;;;;31.98;15.40;;;;;;;;;;5032138;28;20208;-72
2023/11/18 13:18:51;;;;;;;28.17;14.70;;;;;;;;;;5027322;28;20218;-72
2023/11/18 13:21:18;;;;;;;29.00;14.25;;;;;;;;;;5034297;28;20217;-72
2023/11/18 13:23:53;;;;;;;24.90;13.77;;;;;;;;;;5030566;28;20228;-71
2023/11/18 13:26:20;;;;;;;24.85;14.40;;;;;;;;;;5043090;28;20189;-72
2023/11/18 13:28:49;;;;;;;31.63;15.15;;;;;;;;;;5033903;28;20186;-72
2023/11/18 13:31:16;;;;;;;31.08;15.07;;;;;;;;;;5022567;28;20733;-72
2023/11/18 13:33:42;;;;;;;30.27;14.23;;;;;;;;;;5035686;28;20224;-72
2023/11/18 13:36:12;;;;;;;30.13;14.27;;;;;;;;;;5026242;28;20285;-72
2023/11/18 13:38:38;;;;;;;27.33;14.52;;;;;;;;;;5015479;28;20568;-72
2023/11/18 13:41:04;;;;;;;25.48;13.70;;;;;;;;;;5013363;28;20195;-71
2023/11/18 13:43:43;;;;;;;24.40;12.93;;;;;;;;;;5023910;28;20317;-72
2023/11/18 13:46:18;;;;;;;28.50;14.98;;;;;;;;;;5003124;28;20758;-71
2023/11/18 13:48:49;;;;;;;29.98;13.55;;;;;;;;;;5017274;28;20190;-74
2023/11/18 13:51:15;;;;;;;29.02;14.60;;;;;;;;;;5024282;28;20203;-73
2023/11/18 13:53:43;;;;;;;31.30;14.00;;;;;;;;;;5016557;28;20738;-73
2023/11/18 13:56:12;;;;;;;25.75;14.45;;;;;;;;;;5021942;28;20277;-73
2023/11/18 13:58:38;;;;;;;28.15;14.70;;;;;;;;;;5018855;28;20195;-73
2023/11/18 14:01:08;;;;;;;33.13;15.30;;;;;;;;;;5019522;28;20194;-74
2023/11/18 14:03:36;;;;;;;31.30;16.42;;;;;;;;;;5021785;28;20186;-72
2023/11/18 14:06:05;;;;;;;28.25;15.23;;;;;;;;;;5044414;28;20335;-71
2023/11/18 14:08:30;;;;;;;26.17;14.07;;;;;;;;;;5029089;28;20202;-72
2023/11/18 14:10:56;;;;;;;27.80;15.18;;;;;;;;;;5016531;28;20226;-72
2023/11/18 14:13:22;;;;;;;23.95;13.52;;;;;;;;;;5025051;28;20202;-72
2023/11/18 14:15:48;;;;;;;27.33;14.38;;;;;;;;;;5023515;28;20189;-71
2023/11/18 14:18:13;;;;;;;28.02;13.85;;;;;;;;;;5016439;28;20213;-72
2023/11/18 14:20:39;;;;;;;25.00;13.27;;;;;;;;;;5020121;28;20190;-72